Time;durP1;ratioP1;P1;durP2;ratioP2;P2;SDS_P1;SDS_P2;PMS_P1;PMS_P2;Temp;Humidity;BMP_temperature;BMP_pressure;BME280_temperature;BME280_humidity;BME280_pressure;Samples;Min_cycle;Max_cycle;Signal;HPM_P1;HPM_P2
2022/10/05 00:01:45;;;;;;;2.70;1.93;;;;;;;;;;5054515;28;20249;-84
2022/10/05 00:04:15;;;;;;;3.37;1.90;;;;;;;;;;5071769;28;20201;-84
2022/10/05 00:06:44;;;;;;;4.10;2.30;;;;;;;;;;5055730;28;20206;-84
2022/10/05 00:09:16;;;;;;;4.67;2.10;;;;;;;;;;5044425;28;20206;-84
2022/10/05 00:11:45;;;;;;;3.67;2.07;;;;;;;;;;5034015;28;20198;-84
2022/10/05 00:14:17;;;;;;;2.30;2.00;;;;;;;;;;5047652;28;20224;-85
2022/10/05 00:16:46;;;;;;;1.10;1.00;;;;;;;;;;5026895;28;20261;-84
2022/10/05 00:19:19;;;;;;;4.90;1.73;;;;;;;;;;5043431;28;20239;-84
2022/10/05 00:21:47;;;;;;;3.70;1.53;;;;;;;;;;5025285;28;20209;-84
2022/10/05 00:24:19;;;;;;;0.93;0.90;;;;;;;;;;5051938;28;20277;-84
2022/10/05 00:26:49;;;;;;;2.53;0.80;;;;;;;;;;5054143;28;20202;-84
2022/10/05 00:29:25;;;;;;;0.90;0.90;;;;;;;;;;5051522;28;20198;-83
2022/10/05 00:31:53;;;;;;;1.27;1.20;;;;;;;;;;5035626;28;20262;-84
2022/10/05 00:34:21;;;;;;;1.53;1.43;;;;;;;;;;5040789;28;20235;-84
2022/10/05 00:36:50;;;;;;;5.40;2.03;;;;;;;;;;5044824;28;20222;-84
2022/10/05 00:39:22;;;;;;;2.63;1.50;;;;;;;;;;5022164;28;20194;-84
2022/10/05 00:41:57;;;;;;;2.53;1.70;;;;;;;;;;5051854;28;20210;-84
2022/10/05 00:44:31;;;;;;;3.47;1.97;;;;;;;;;;5043220;28;20327;-84
2022/10/05 00:47:07;;;;;;;2.80;1.40;;;;;;;;;;5040757;28;20253;-84
2022/10/05 00:49:42;;;;;;;3.90;2.60;;;;;;;;;;5053794;28;20204;-84
2022/10/05 00:52:19;;;;;;;3.27;1.93;;;;;;;;;;5040577;28;20201;-84
2022/10/05 00:54:54;;;;;;;1.93;1.40;;;;;;;;;;5040478;28;20268;-84
2022/10/05 00:57:30;;;;;;;3.27;1.70;;;;;;;;;;5034223;28;20217;-84
2022/10/05 01:00:05;;;;;;;2.57;1.47;;;;;;;;;;5030966;28;20198;-84
2022/10/05 01:02:37;;;;;;;0.90;0.90;;;;;;;;;;5025238;28;20233;-84
2022/10/05 01:05:09;;;;;;;0.90;0.67;;;;;;;;;;5040541;28;20201;-84
2022/10/05 01:07:42;;;;;;;5.67;2.00;;;;;;;;;;5052826;28;20213;-84
2022/10/05 01:10:19;;;;;;;4.17;2.23;;;;;;;;;;5022521;28;20223;-84
2022/10/05 01:12:51;;;;;;;1.17;1.07;;;;;;;;;;5036464;28;20269;-84
2022/10/05 01:15:24;;;;;;;1.20;1.00;;;;;;;;;;5044543;28;20210;-84
2022/10/05 01:17:57;;;;;;;0.80;0.80;;;;;;;;;;5051030;28;20208;-84
2022/10/05 01:20:35;;;;;;;8.83;2.40;;;;;;;;;;5069744;28;20202;-84
2022/10/05 01:23:21;;;;;;;3.90;1.43;;;;;;;;;;5053190;28;20209;-84
2022/10/05 01:25:56;;;;;;;2.00;1.50;;;;;;;;;;5039789;28;20209;-84
2022/10/05 01:28:28;;;;;;;2.97;1.83;;;;;;;;;;5042441;28;20192;-84
2022/10/05 01:31:00;;;;;;;1.40;1.03;;;;;;;;;;5034208;28;20203;-84
2022/10/05 01:33:30;;;;;;;2.63;1.47;;;;;;;;;;5062934;28;20219;-84
2022/10/05 01:36:01;;;;;;;4.00;1.30;;;;;;;;;;5027057;28;20230;-84
2022/10/05 01:38:37;;;;;;;1.97;1.60;;;;;;;;;;5068754;28;20221;-84
2022/10/05 01:41:08;;;;;;;1.80;0.90;;;;;;;;;;5069485;28;20202;-84
2022/10/05 01:43:41;;;;;;;1.93;1.40;;;;;;;;;;5052336;28;20205;-84
2022/10/05 01:46:14;;;;;;;4.07;2.10;;;;;;;;;;5052134;28;20208;-84
2022/10/05 01:48:48;;;;;;;5.30;1.60;;;;;;;;;;5068983;28;20296;-84
2022/10/05 01:51:19;;;;;;;1.80;1.70;;;;;;;;;;5057331;28;20209;-84
2022/10/05 01:53:54;;;;;;;3.73;2.00;;;;;;;;;;5026969;28;20207;-84
2022/10/05 01:56:27;;;;;;;4.53;2.00;;;;;;;;;;5040224;28;20205;-84
2022/10/05 01:59:02;;;;;;;2.00;1.80;;;;;;;;;;5060437;28;20263;-84
2022/10/05 02:01:36;;;;;;;3.13;2.70;;;;;;;;;;5046277;28;20222;-84
2022/10/05 02:04:08;;;;;;;2.60;1.40;;;;;;;;;;5032942;28;20206;-84
2022/10/05 02:06:38;;;;;;;2.23;1.60;;;;;;;;;;5046138;28;20202;-84
2022/10/05 02:09:10;;;;;;;2.03;1.63;;;;;;;;;;5045387;28;20197;-84
2022/10/05 02:11:40;;;;;;;5.00;1.60;;;;;;;;;;5020548;28;20213;-84
2022/10/05 02:14:11;;;;;;;1.80;0.60;;;;;;;;;;5034058;28;20206;-84
2022/10/05 02:16:40;;;;;;;1.97;1.40;;;;;;;;;;5041589;28;20197;-84
2022/10/05 02:19:13;;;;;;;3.80;2.00;;;;;;;;;;5037642;28;20244;-84
2022/10/05 02:21:44;;;;;;;0.80;0.80;;;;;;;;;;5041596;28;20254;-84
2022/10/05 02:24:16;;;;;;;2.87;1.63;;;;;;;;;;5065684;28;20201;-84
2022/10/05 02:26:46;;;;;;;2.83;1.40;;;;;;;;;;5043439;28;20211;-84
2022/10/05 02:29:19;;;;;;;2.13;1.00;;;;;;;;;;5051298;28;20197;-84
2022/10/05 02:31:49;;;;;;;2.27;1.33;;;;;;;;;;5052433;28;20211;-84
2022/10/05 02:34:22;;;;;;;0.70;0.70;;;;;;;;;;5061287;28;20287;-84
2022/10/05 02:36:53;;;;;;;2.07;1.10;;;;;;;;;;5032808;28;20267;-84
2022/10/05 02:39:24;;;;;;;2.97;1.30;;;;;;;;;;5060371;28;20217;-84
2022/10/05 02:41:57;;;;;;;4.87;1.40;;;;;;;;;;5041679;28;20192;-84
2022/10/05 02:44:30;;;;;;;2.00;1.23;;;;;;;;;;5033538;28;20215;-84
2022/10/05 02:47:03;;;;;;;1.57;1.20;;;;;;;;;;5049359;28;20216;-84
2022/10/05 02:49:35;;;;;;;1.37;1.07;;;;;;;;;;5033083;28;20202;-84
2022/10/05 02:52:07;;;;;;;2.43;1.37;;;;;;;;;;5032225;28;20201;-84
2022/10/05 02:54:41;;;;;;;0.97;0.97;;;;;;;;;;5043927;28;20208;-84
2022/10/05 02:57:12;;;;;;;1.63;1.53;;;;;;;;;;5038210;28;20204;-84
2022/10/05 02:59:44;;;;;;;3.63;1.70;;;;;;;;;;5032063;28;20227;-84
2022/10/05 03:02:15;;;;;;;8.30;2.00;;;;;;;;;;5032840;28;20219;-84
2022/10/05 03:04:49;;;;;;;2.77;1.80;;;;;;;;;;5044183;28;20207;-84
2022/10/05 03:07:19;;;;;;;1.67;1.33;;;;;;;;;;5052510;28;20204;-84
2022/10/05 03:09:52;;;;;;;1.43;1.00;;;;;;;;;;5051579;28;20275;-84
2022/10/05 03:12:42;;;;;;;1.67;1.30;;;;;;;;;;5036918;28;20240;-84
2022/10/05 03:15:20;;;;;;;3.40;1.83;;;;;;;;;;5039331;28;20202;-84
2022/10/05 03:17:55;;;;;;;3.00;1.50;;;;;;;;;;5049211;28;20262;-84
2022/10/05 03:20:28;;;;;;;2.23;1.70;;;;;;;;;;5068774;28;20204;-84
2022/10/05 03:22:59;;;;;;;1.20;1.20;;;;;;;;;;5019499;28;20270;-84
2022/10/05 03:25:35;;;;;;;3.27;1.33;;;;;;;;;;5032552;28;20209;-84
2022/10/05 03:28:10;;;;;;;1.93;1.30;;;;;;;;;;5052508;28;20198;-84
2022/10/05 03:30:43;;;;;;;2.33;1.23;;;;;;;;;;5067119;28;20203;-84
2022/10/05 03:33:15;;;;;;;5.03;1.80;;;;;;;;;;5051368;28;20224;-85
2022/10/05 03:35:49;;;;;;;1.60;1.50;;;;;;;;;;5050549;28;20259;-84
2022/10/05 03:38:22;;;;;;;2.90;1.80;;;;;;;;;;5067377;28;20220;-84
2022/10/05 03:40:55;;;;;;;2.33;1.50;;;;;;;;;;5051311;28;20210;-84
2022/10/05 03:43:32;;;;;;;2.00;1.50;;;;;;;;;;5050076;28;20201;-84
2022/10/05 03:46:06;;;;;;;1.93;1.30;;;;;;;;;;5051706;28;20684;-84
2022/10/05 03:48:38;;;;;;;2.40;1.73;;;;;;;;;;5052510;28;20207;-84
2022/10/05 03:51:08;;;;;;;1.67;1.27;;;;;;;;;;5033321;28;20314;-84
2022/10/05 03:53:40;;;;;;;2.43;2.00;;;;;;;;;;5037246;28;20229;-84
2022/10/05 03:56:12;;;;;;;1.87;1.70;;;;;;;;;;5048086;28;20203;-84
2022/10/05 03:58:43;;;;;;;4.90;2.00;;;;;;;;;;5038787;28;20274;-84
2022/10/05 04:01:15;;;;;;;4.77;1.57;;;;;;;;;;5035325;28;20232;-84
2022/10/05 04:03:46;;;;;;;3.33;0.77;;;;;;;;;;5043221;28;20197;-84
2022/10/05 04:06:17;;;;;;;2.20;2.00;;;;;;;;;;5071485;28;20203;-84
2022/10/05 04:08:47;;;;;;;3.20;1.93;;;;;;;;;;5054245;28;20296;-84
2022/10/05 04:11:20;;;;;;;1.73;1.63;;;;;;;;;;5067727;28;20200;-84
2022/10/05 04:13:52;;;;;;;3.33;1.50;;;;;;;;;;5029192;28;20261;-84
2022/10/05 04:16:23;;;;;;;6.10;2.37;;;;;;;;;;5053085;28;20197;-84
2022/10/05 04:18:57;;;;;;;2.83;2.07;;;;;;;;;;5046050;28;20222;-84
2022/10/05 04:21:26;;;;;;;4.73;2.00;;;;;;;;;;5055525;28;20212;-84
2022/10/05 04:23:59;;;;;;;2.77;1.73;;;;;;;;;;5053251;28;20204;-84
2022/10/05 04:26:31;;;;;;;1.93;1.80;;;;;;;;;;5035166;28;20237;-84
2022/10/05 04:29:03;;;;;;;2.43;1.83;;;;;;;;;;5037461;28;20263;-84
2022/10/05 04:31:41;;;;;;;3.07;2.10;;;;;;;;;;5070287;28;20208;-84
2022/10/05 04:34:15;;;;;;;3.53;1.70;;;;;;;;;;5069585;28;20234;-84
2022/10/05 04:36:46;;;;;;;5.90;2.07;;;;;;;;;;5043244;28;20212;-83
2022/10/05 04:39:19;;;;;;;3.63;2.00;;;;;;;;;;5063546;28;20252;-84
2022/10/05 04:42:02;;;;;;;1.90;1.60;;;;;;;;;;5034185;28;20196;-83
2022/10/05 04:44:44;;;;;;;2.00;1.80;;;;;;;;;;5034487;28;20259;-84
2022/10/05 04:47:23;;;;;;;4.77;2.37;;;;;;;;;;5042122;28;20210;-83
2022/10/05 04:50:01;;;;;;;2.33;1.83;;;;;;;;;;5029622;28;20272;-84
2022/10/05 04:52:33;;;;;;;3.97;1.70;;;;;;;;;;5061225;28;20229;-84
2022/10/05 04:55:05;;;;;;;2.17;1.97;;;;;;;;;;5034756;28;20201;-84
2022/10/05 04:57:36;;;;;;;2.30;1.77;;;;;;;;;;5033993;28;20205;-84
2022/10/05 05:00:09;;;;;;;5.33;2.37;;;;;;;;;;5051398;28;20223;-84
2022/10/05 05:02:45;;;;;;;3.37;2.17;;;;;;;;;;5053647;28;20221;-84
2022/10/05 05:05:32;;;;;;;3.27;1.73;;;;;;;;;;5029816;28;20284;-84
2022/10/05 05:08:07;;;;;;;4.17;1.80;;;;;;;;;;5040343;28;20267;-83
2022/10/05 05:10:46;;;;;;;1.90;1.73;;;;;;;;;;5058783;28;20192;-84
2022/10/05 05:13:26;;;;;;;2.33;1.50;;;;;;;;;;5057108;28;20211;-84
2022/10/05 05:15:59;;;;;;;5.60;2.37;;;;;;;;;;5044662;28;20204;-84
2022/10/05 05:18:38;;;;;;;1.33;1.23;;;;;;;;;;5052965;28;20228;-84
2022/10/05 05:21:12;;;;;;;1.87;1.73;;;;;;;;;;5047945;28;20209;-84
2022/10/05 05:23:43;;;;;;;3.83;1.60;;;;;;;;;;5051221;28;20270;-84
2022/10/05 05:26:15;;;;;;;2.93;1.70;;;;;;;;;;5046368;28;20205;-84
2022/10/05 05:28:47;;;;;;;1.63;1.30;;;;;;;;;;5034374;28;20201;-84
2022/10/05 05:31:24;;;;;;;1.87;1.63;;;;;;;;;;5045326;28;20209;-83
2022/10/05 05:33:57;;;;;;;2.43;1.80;;;;;;;;;;5049197;28;20255;-83
2022/10/05 05:36:35;;;;;;;2.00;1.70;;;;;;;;;;5069674;28;20193;-83
2022/10/05 05:39:20;;;;;;;3.63;1.90;;;;;;;;;;5028675;28;20254;-84
2022/10/05 05:41:53;;;;;;;2.10;1.43;;;;;;;;;;5044065;28;20271;-82
2022/10/05 05:44:24;;;;;;;3.30;2.17;;;;;;;;;;5023952;28;20333;-83
2022/10/05 05:46:55;;;;;;;3.17;1.73;;;;;;;;;;5043554;28;20208;-83
2022/10/05 05:49:41;;;;;;;1.77;1.50;;;;;;;;;;5042881;28;20211;-82
2022/10/05 05:52:16;;;;;;;4.63;1.60;;;;;;;;;;5032870;28;20209;-82
2022/10/05 05:54:47;;;;;;;1.63;1.30;;;;;;;;;;5046430;28;20200;-83
2022/10/05 05:57:18;;;;;;;1.60;1.30;;;;;;;;;;5044505;28;20220;-83
2022/10/05 05:59:55;;;;;;;3.53;1.63;;;;;;;;;;5034618;28;20217;-84
2022/10/05 06:02:26;;;;;;;4.03;1.70;;;;;;;;;;5036043;28;20223;-83
2022/10/05 06:04:58;;;;;;;1.93;1.20;;;;;;;;;;5047763;28;20202;-82
2022/10/05 06:07:30;;;;;;;2.07;1.70;;;;;;;;;;5044459;28;20296;-82
2022/10/05 06:10:02;;;;;;;1.80;1.63;;;;;;;;;;5065877;28;20210;-83
2022/10/05 06:12:33;;;;;;;2.67;1.60;;;;;;;;;;5051331;28;20204;-82
2022/10/05 06:15:05;;;;;;;1.43;1.33;;;;;;;;;;5051820;28;20243;-82
2022/10/05 06:17:35;;;;;;;1.53;1.40;;;;;;;;;;5066519;28;20254;-82
2022/10/05 06:20:06;;;;;;;3.17;1.50;;;;;;;;;;5032468;28;20231;-83
2022/10/05 06:22:37;;;;;;;1.97;1.60;;;;;;;;;;5046083;28;20208;-82
2022/10/05 06:25:15;;;;;;;3.73;1.70;;;;;;;;;;5048831;28;20206;-82
2022/10/05 06:28:01;;;;;;;2.33;1.60;;;;;;;;;;5032497;28;20225;-82
2022/10/05 06:30:38;;;;;;;1.60;1.50;;;;;;;;;;5032398;28;20227;-82
2022/10/05 06:33:15;;;;;;;2.63;2.00;;;;;;;;;;5032574;28;20268;-82
2022/10/05 06:35:49;;;;;;;2.43;1.87;;;;;;;;;;5036954;28;20367;-82
2022/10/05 06:38:25;;;;;;;2.10;1.90;;;;;;;;;;5055944;28;20213;-82
2022/10/05 06:41:00;;;;;;;4.10;1.97;;;;;;;;;;5028999;28;20222;-82
2022/10/05 06:43:35;;;;;;;1.97;1.60;;;;;;;;;;5015626;28;20202;-82
2022/10/05 06:46:07;;;;;;;1.63;1.50;;;;;;;;;;5032039;28;20209;-82
2022/10/05 06:48:45;;;;;;;2.27;1.70;;;;;;;;;;5047996;28;20212;-82
2022/10/05 06:51:22;;;;;;;1.67;1.50;;;;;;;;;;5044723;28;20206;-83
2022/10/05 06:53:56;;;;;;;2.67;1.00;;;;;;;;;;5048918;28;20202;-83
2022/10/05 06:56:33;;;;;;;3.30;1.50;;;;;;;;;;5043931;28;20200;-83
2022/10/05 06:59:07;;;;;;;3.90;1.67;;;;;;;;;;5031714;28;20196;-82
2022/10/05 07:01:41;;;;;;;3.77;1.50;;;;;;;;;;5051301;28;20252;-83
2022/10/05 07:04:40;;;;;;;1.23;1.17;;;;;;;;;;5065594;28;20210;-83
2022/10/05 07:07:14;;;;;;;1.77;1.20;;;;;;;;;;4981206;28;20212;-84
2022/10/05 07:09:50;;;;;;;5.83;1.30;;;;;;;;;;5045262;28;20205;-83
2022/10/05 07:12:32;;;;;;;2.23;1.60;;;;;;;;;;5035735;28;20268;-83
2022/10/05 07:15:07;;;;;;;3.17;1.80;;;;;;;;;;5016914;28;20214;-84
2022/10/05 07:17:44;;;;;;;2.90;1.93;;;;;;;;;;5025358;28;20210;-84
2022/10/05 07:20:16;;;;;;;3.33;1.60;;;;;;;;;;5015941;28;20231;-83
2022/10/05 07:23:00;;;;;;;2.13;1.50;;;;;;;;;;5010765;28;20201;-84
2022/10/05 07:25:36;;;;;;;1.33;1.00;;;;;;;;;;5011661;28;20202;-83
2022/10/05 07:28:07;;;;;;;3.40;1.90;;;;;;;;;;5027925;28;20215;-84
2022/10/05 07:30:41;;;;;;;2.07;1.30;;;;;;;;;;5008767;28;20213;-83
2022/10/05 07:33:12;;;;;;;2.07;1.57;;;;;;;;;;5009204;28;20213;-82
2022/10/05 07:38:37;;;;;;;3.23;1.93;;;;;;;;;;5030194;28;20210;-82
2022/10/05 07:41:12;;;;;;;1.17;1.17;;;;;;;;;;5016119;28;20292;-83
2022/10/05 07:43:44;;;;;;;0.97;0.97;;;;;;;;;;5032152;28;20207;-82
2022/10/05 07:46:36;;;;;;;1.60;1.50;;;;;;;;;;5011512;28;20221;-83
2022/10/05 07:49:08;;;;;;;3.60;1.80;;;;;;;;;;5019990;28;20535;-83
2022/10/05 07:51:39;;;;;;;1.60;1.43;;;;;;;;;;5014200;28;20206;-84
2022/10/05 07:54:14;;;;;;;2.30;1.70;;;;;;;;;;5026422;28;20202;-84
2022/10/05 07:56:49;;;;;;;2.03;1.47;;;;;;;;;;5021569;28;20297;-85
2022/10/05 07:59:25;;;;;;;2.00;1.60;;;;;;;;;;5012832;28;20210;-83
2022/10/05 08:01:58;;;;;;;2.13;1.57;;;;;;;;;;5016054;28;20256;-82
2022/10/05 08:04:28;;;;;;;1.40;1.30;;;;;;;;;;5009904;28;20233;-81
2022/10/05 08:06:58;;;;;;;2.93;1.50;;;;;;;;;;5012315;28;20206;-83
2022/10/05 08:09:37;;;;;;;2.73;1.50;;;;;;;;;;5015797;28;20240;-83
2022/10/05 08:12:13;;;;;;;1.73;1.63;;;;;;;;;;5013652;28;20295;-83
2022/10/05 08:14:46;;;;;;;2.17;1.33;;;;;;;;;;5010507;28;20212;-81
2022/10/05 08:17:19;;;;;;;2.10;1.93;;;;;;;;;;5010275;28;20209;-83
2022/10/05 08:19:55;;;;;;;3.73;1.70;;;;;;;;;;5010110;28;20200;-83
2022/10/05 08:22:25;;;;;;;1.63;0.73;;;;;;;;;;5023267;28;20235;-83
2022/10/05 08:24:58;;;;;;;3.13;2.00;;;;;;;;;;5005689;28;20214;-82
2022/10/05 08:27:33;;;;;;;2.73;2.13;;;;;;;;;;5007335;28;20214;-81
2022/10/05 08:30:03;;;;;;;1.10;1.10;;;;;;;;;;5002551;28;20214;-83
2022/10/05 08:32:35;;;;;;;2.30;1.77;;;;;;;;;;5008468;28;20207;-82
2022/10/05 08:35:12;;;;;;;1.27;1.00;;;;;;;;;;5009980;28;20232;-81
2022/10/05 08:37:42;;;;;;;2.73;2.17;;;;;;;;;;5007531;28;20217;-82
2022/10/05 08:40:30;;;;;;;1.30;1.20;;;;;;;;;;5008904;28;20203;-82
2022/10/05 08:43:06;;;;;;;2.90;1.20;;;;;;;;;;5006245;28;20234;-82
2022/10/05 08:45:53;;;;;;;2.30;1.63;;;;;;;;;;5010214;28;20205;-81
2022/10/05 08:48:31;;;;;;;4.67;1.93;;;;;;;;;;5025707;28;20324;-83
2022/10/05 08:51:18;;;;;;;4.40;2.83;;;;;;;;;;5006976;28;20222;-83
2022/10/05 08:54:05;;;;;;;0.80;0.80;;;;;;;;;;5009308;28;20217;-83
2022/10/05 08:56:40;;;;;;;3.57;2.13;;;;;;;;;;5018592;28;20205;-82
2022/10/05 08:59:20;;;;;;;2.87;2.20;;;;;;;;;;5009277;28;20233;-83
2022/10/05 09:02:01;;;;;;;3.93;2.27;;;;;;;;;;5008711;28;20240;-83
2022/10/05 09:04:39;;;;;;;2.03;1.83;;;;;;;;;;5021909;28;20224;-83
2022/10/05 09:07:24;;;;;;;1.73;1.63;;;;;;;;;;5005842;28;20215;-81
2022/10/05 09:10:13;;;;;;;1.23;1.07;;;;;;;;;;4999017;28;20242;-82
2022/10/05 09:13:05;;;;;;;2.90;2.30;;;;;;;;;;5002411;28;20301;-84
2022/10/05 09:15:41;;;;;;;5.00;2.13;;;;;;;;;;4989085;28;20207;-83
2022/10/05 09:18:29;;;;;;;3.13;1.97;;;;;;;;;;5001428;28;20320;-84
2022/10/05 09:20:59;;;;;;;3.00;1.43;;;;;;;;;;5007105;28;20211;-82
2022/10/05 09:23:37;;;;;;;3.23;2.13;;;;;;;;;;5015472;28;20210;-84
2022/10/05 09:26:09;;;;;;;2.23;1.97;;;;;;;;;;5009486;28;20305;-83
2022/10/05 09:28:47;;;;;;;3.67;1.90;;;;;;;;;;5002779;28;20210;-83
2022/10/05 09:31:30;;;;;;;6.37;2.30;;;;;;;;;;5004038;28;20201;-85
2022/10/05 09:34:28;;;;;;;2.10;1.90;;;;;;;;;;4999278;28;20243;-82
2022/10/05 09:37:16;;;;;;;2.10;1.90;;;;;;;;;;5022600;28;20221;-82
2022/10/05 09:40:00;;;;;;;3.10;2.03;;;;;;;;;;5024788;28;20207;-82
2022/10/05 09:42:43;;;;;;;3.87;2.17;;;;;;;;;;5037000;28;20305;-84
2022/10/05 09:45:36;;;;;;;4.77;2.83;;;;;;;;;;5021462;28;20249;-82
2022/10/05 09:48:26;;;;;;;3.03;1.97;;;;;;;;;;5014510;28;20294;-83
2022/10/05 09:51:12;;;;;;;1.13;1.10;;;;;;;;;;5005423;28;20205;-82
2022/10/05 09:53:54;;;;;;;2.17;1.90;;;;;;;;;;5023558;28;20203;-81
2022/10/05 09:56:29;;;;;;;2.53;2.20;;;;;;;;;;5014899;28;20281;-81
2022/10/05 09:59:06;;;;;;;2.27;1.80;;;;;;;;;;5008996;28;20253;-83
2022/10/05 10:01:50;;;;;;;3.10;1.93;;;;;;;;;;5022012;28;20238;-81
2022/10/05 10:04:24;;;;;;;7.77;3.00;;;;;;;;;;5030662;28;20203;-81
2022/10/05 10:07:17;;;;;;;4.37;2.17;;;;;;;;;;5003783;28;20210;-83
2022/10/05 10:09:54;;;;;;;4.93;1.90;;;;;;;;;;5012435;28;20211;-81
2022/10/05 10:12:32;;;;;;;2.97;1.20;;;;;;;;;;5008696;28;20199;-80
2022/10/05 10:15:19;;;;;;;2.73;2.00;;;;;;;;;;5011647;28;20194;-80
2022/10/05 10:18:07;;;;;;;4.38;1.80;;;;;;;;;;5006681;28;20462;-82
2022/10/05 10:20:45;;;;;;;2.00;1.70;;;;;;;;;;4985957;28;20217;-82
2022/10/05 10:23:24;;;;;;;4.83;1.87;;;;;;;;;;5008385;28;20255;-84
2022/10/05 10:26:11;;;;;;;5.57;1.60;;;;;;;;;;5005502;28;20215;-81
2022/10/05 10:28:59;;;;;;;2.47;1.67;;;;;;;;;;5004225;28;20245;-82
2022/10/05 10:31:39;;;;;;;3.83;1.80;;;;;;;;;;5002818;28;20226;-83
2022/10/05 10:34:19;;;;;;;3.40;1.80;;;;;;;;;;5013389;28;20248;-81
2022/10/05 10:37:01;;;;;;;1.57;1.30;;;;;;;;;;5023369;28;20277;-82
2022/10/05 10:39:39;;;;;;;1.80;1.33;;;;;;;;;;5020705;28;20285;-85
2022/10/05 10:42:23;;;;;;;1.97;1.60;;;;;;;;;;5013652;28;20225;-82
2022/10/05 10:45:12;;;;;;;5.53;1.53;;;;;;;;;;5020635;28;20221;-82
2022/10/05 10:47:52;;;;;;;4.23;1.70;;;;;;;;;;5006565;28;20301;-81
2022/10/05 10:50:39;;;;;;;1.43;1.30;;;;;;;;;;5011619;28;20230;-82
2022/10/05 10:53:22;;;;;;;11.10;2.93;;;;;;;;;;5006452;28;20249;-83
2022/10/05 10:55:59;;;;;;;2.33;1.33;;;;;;;;;;5035082;28;20198;-82
2022/10/05 10:58:49;;;;;;;6.77;2.30;;;;;;;;;;5038108;28;20208;-81
2022/10/05 11:01:30;;;;;;;7.47;1.80;;;;;;;;;;5009887;28;20307;-82
2022/10/05 11:04:20;;;;;;;2.17;1.10;;;;;;;;;;5020173;28;20211;-83
2022/10/05 11:07:07;;;;;;;5.50;1.87;;;;;;;;;;5006586;28;20237;-82
2022/10/05 11:09:50;;;;;;;1.40;1.30;;;;;;;;;;5014465;28;20218;-82
2022/10/05 11:12:43;;;;;;;3.23;2.20;;;;;;;;;;4987062;28;20209;-84
2022/10/05 11:15:30;;;;;;;4.50;1.77;;;;;;;;;;5012950;28;20196;-82
2022/10/05 11:18:18;;;;;;;5.53;1.93;;;;;;;;;;5011800;28;20212;-83
2022/10/05 11:21:02;;;;;;;7.77;2.20;;;;;;;;;;5011666;28;20207;-80
2022/10/05 11:23:58;;;;;;;7.13;2.23;;;;;;;;;;5029262;28;20290;-81
2022/10/05 11:26:47;;;;;;;4.23;1.93;;;;;;;;;;4970599;28;20215;-81
2022/10/05 11:29:32;;;;;;;2.07;1.40;;;;;;;;;;5013186;28;20209;-83
2022/10/05 11:32:18;;;;;;;5.00;2.37;;;;;;;;;;5008732;28;20219;-81
2022/10/05 11:35:23;;;;;;;5.87;2.27;;;;;;;;;;5016370;28;20276;-80
2022/10/05 11:38:16;;;;;;;5.97;2.63;;;;;;;;;;4932411;28;20216;-81
2022/10/05 11:40:57;;;;;;;3.80;2.40;;;;;;;;;;4914771;29;20297;-82
2022/10/05 11:43:41;;;;;;;4.80;2.43;;;;;;;;;;4997064;28;20264;-83
2022/10/05 11:46:15;;;;;;;6.27;2.17;;;;;;;;;;5015981;28;20218;-81
2022/10/05 11:48:49;;;;;;;5.87;2.50;;;;;;;;;;5029025;28;20329;-84
2022/10/05 11:51:33;;;;;;;2.60;1.90;;;;;;;;;;5009935;28;20209;-80
2022/10/05 11:54:16;;;;;;;4.07;1.87;;;;;;;;;;5008782;28;20200;-80
2022/10/05 11:56:47;;;;;;;3.60;1.63;;;;;;;;;;5008434;28;20215;-81
2022/10/05 11:59:25;;;;;;;2.47;1.50;;;;;;;;;;5006704;28;20210;-80
2022/10/05 12:01:55;;;;;;;5.73;1.70;;;;;;;;;;5027352;28;20233;-81
2022/10/05 12:04:29;;;;;;;3.47;1.60;;;;;;;;;;5016635;28;20232;-84
2022/10/05 12:07:06;;;;;;;2.87;1.83;;;;;;;;;;5027813;28;20469;-81
2022/10/05 12:10:12;;;;;;;2.37;2.10;;;;;;;;;;5011804;28;22116;-81
2022/10/05 12:12:34;;;;;;;3.37;2.07;;;;;;;;;;5016335;28;20258;-81
2022/10/05 12:15:07;;;;;;;2.47;2.27;;;;;;;;;;5028627;28;20221;-80
2022/10/05 12:17:37;;;;;;;3.30;1.67;;;;;;;;;;5022103;28;20210;-80
2022/10/05 12:20:11;;;;;;;4.00;2.33;;;;;;;;;;5005095;28;20231;-82
2022/10/05 12:22:42;;;;;;;4.20;1.80;;;;;;;;;;5012975;28;20238;-82
2022/10/05 12:25:22;;;;;;;2.50;1.83;;;;;;;;;;5007852;28;20221;-82
2022/10/05 12:27:52;;;;;;;2.73;2.20;;;;;;;;;;5008256;28;20221;-83
2022/10/05 12:30:27;;;;;;;3.53;2.30;;;;;;;;;;5022126;28;20258;-80
2022/10/05 12:32:57;;;;;;;5.50;2.03;;;;;;;;;;5016499;28;20195;-79
2022/10/05 12:35:32;;;;;;;3.20;1.73;;;;;;;;;;5006806;28;20270;-82
2022/10/05 12:38:21;;;;;;;2.60;1.80;;;;;;;;;;5018957;28;20317;-82
2022/10/05 12:40:59;;;;;;;5.00;2.40;;;;;;;;;;5032717;28;20213;-83
2022/10/05 12:43:34;;;;;;;4.27;2.60;;;;;;;;;;5020386;28;20228;-83
2022/10/05 12:46:09;;;;;;;2.10;1.23;;;;;;;;;;5025517;28;20207;-83
2022/10/05 12:49:22;;;;;;;;;;;;;;;;;;;;;
2022/10/05 12:51:56;;;;;;;12.27;2.90;;;;;;;;;;4996155;28;20214;-85
2022/10/05 12:54:28;;;;;;;2.83;1.80;;;;;;;;;;5015206;28;20283;-82
2022/10/05 12:57:00;;;;;;;0.93;0.93;;;;;;;;;;5011532;28;20332;-83
2022/10/05 12:59:36;;;;;;;1.80;1.70;;;;;;;;;;5020128;28;20209;-84
2022/10/05 13:02:15;;;;;;;1.97;1.60;;;;;;;;;;5012416;28;20261;-84
2022/10/05 13:04:48;;;;;;;7.20;1.70;;;;;;;;;;5024411;28;20227;-85
2022/10/05 13:07:26;;;;;;;4.20;2.20;;;;;;;;;;5022975;28;20215;-84
2022/10/05 13:09:56;;;;;;;2.87;2.30;;;;;;;;;;5015204;28;20211;-82
2022/10/05 13:12:36;;;;;;;3.53;2.30;;;;;;;;;;5007918;28;20305;-83
2022/10/05 13:15:09;;;;;;;2.97;2.03;;;;;;;;;;5014106;28;20210;-85
2022/10/05 13:17:41;;;;;;;4.97;2.27;;;;;;;;;;5030741;28;20222;-84
2022/10/05 13:20:19;;;;;;;3.27;1.60;;;;;;;;;;5016672;28;20238;-83
2022/10/05 13:22:57;;;;;;;1.33;1.10;;;;;;;;;;5013328;28;20208;-83
2022/10/05 13:25:30;;;;;;;6.97;3.00;;;;;;;;;;5016873;28;20220;-85
2022/10/05 13:28:09;;;;;;;2.97;1.40;;;;;;;;;;5021572;28;20199;-83
2022/10/05 13:30:45;;;;;;;2.90;2.23;;;;;;;;;;5032800;28;20256;-83
2022/10/05 13:33:16;;;;;;;3.10;1.87;;;;;;;;;;5033955;28;20194;-83
2022/10/05 13:35:47;;;;;;;3.20;1.80;;;;;;;;;;5047262;28;20226;-83
2022/10/05 13:38:26;;;;;;;3.60;1.80;;;;;;;;;;5032835;28;20210;-84
2022/10/05 13:40:59;;;;;;;4.20;2.20;;;;;;;;;;5033735;28;20297;-82
2022/10/05 13:43:33;;;;;;;2.70;1.90;;;;;;;;;;5034733;28;20225;-83
2022/10/05 13:46:05;;;;;;;3.23;2.00;;;;;;;;;;5042168;28;20194;-83
2022/10/05 13:48:48;;;;;;;4.50;2.37;;;;;;;;;;5049525;28;20202;-84
2022/10/05 13:51:22;;;;;;;1.67;1.33;;;;;;;;;;5038395;28;20210;-84
2022/10/05 13:54:01;;;;;;;4.33;2.13;;;;;;;;;;5015749;28;20207;-84
2022/10/05 13:56:30;;;;;;;5.17;2.13;;;;;;;;;;5042980;28;20255;-83
2022/10/05 13:59:10;;;;;;;4.47;1.97;;;;;;;;;;5056084;28;20232;-83
2022/10/05 14:01:43;;;;;;;3.57;1.63;;;;;;;;;;5036840;28;20222;-83
2022/10/05 14:04:18;;;;;;;1.53;1.40;;;;;;;;;;5027997;28;20215;-83
2022/10/05 14:06:48;;;;;;;2.93;2.00;;;;;;;;;;5032690;28;20199;-84
2022/10/05 14:09:28;;;;;;;4.57;1.77;;;;;;;;;;5040768;28;20289;-83
2022/10/05 14:12:11;;;;;;;2.83;2.03;;;;;;;;;;5030047;28;20194;-83
2022/10/05 14:14:53;;;;;;;5.53;2.33;;;;;;;;;;5029681;28;20195;-83
2022/10/05 14:17:41;;;;;;;1.53;1.20;;;;;;;;;;5025116;28;20294;-83
2022/10/05 14:20:25;;;;;;;2.53;1.60;;;;;;;;;;5035419;28;20207;-83
2022/10/05 14:22:56;;;;;;;5.53;2.00;;;;;;;;;;5029897;28;20219;-83
2022/10/05 14:25:24;;;;;;;2.50;1.70;;;;;;;;;;5014876;28;20310;-84
2022/10/05 14:27:56;;;;;;;2.57;1.80;;;;;;;;;;5026817;28;21116;-84
2022/10/05 14:30:27;;;;;;;4.17;2.00;;;;;;;;;;5024518;28;20254;-84
2022/10/05 14:32:58;;;;;;;3.57;2.23;;;;;;;;;;5036756;28;20207;-84
2022/10/05 14:35:29;;;;;;;2.00;1.80;;;;;;;;;;5007060;28;20238;-82
2022/10/05 14:37:59;;;;;;;3.73;2.43;;;;;;;;;;5007298;28;20223;-83
2022/10/05 14:40:33;;;;;;;4.70;1.60;;;;;;;;;;5013182;28;20194;-83
2022/10/05 14:43:03;;;;;;;4.17;1.20;;;;;;;;;;5008897;28;20203;-83
2022/10/05 14:45:52;;;;;;;3.80;2.60;;;;;;;;;;5008292;28;20229;-83
2022/10/05 14:48:21;;;;;;;5.17;1.80;;;;;;;;;;5014493;28;20219;-85
2022/10/05 14:50:54;;;;;;;3.93;2.20;;;;;;;;;;5013497;28;20234;-83
2022/10/05 14:53:24;;;;;;;2.30;2.10;;;;;;;;;;5012258;28;20199;-83
2022/10/05 14:55:57;;;;;;;3.23;1.50;;;;;;;;;;5008674;28;20292;-84
2022/10/05 14:58:33;;;;;;;3.07;1.97;;;;;;;;;;5023169;28;20345;-84
2022/10/05 15:01:09;;;;;;;3.30;2.27;;;;;;;;;;5005511;28;20223;-86
2022/10/05 15:03:46;;;;;;;2.80;2.17;;;;;;;;;;5007261;28;20251;-84
2022/10/05 15:06:19;;;;;;;2.10;1.53;;;;;;;;;;5007948;28;20219;-85
2022/10/05 15:09:07;;;;;;;5.23;1.57;;;;;;;;;;5013987;28;20210;-85
2022/10/05 15:11:49;;;;;;;3.10;1.70;;;;;;;;;;5002547;28;20317;-85
2022/10/05 15:14:20;;;;;;;2.60;2.03;;;;;;;;;;5012988;28;20317;-85
2022/10/05 15:16:52;;;;;;;5.90;2.23;;;;;;;;;;5007695;28;20212;-84
2022/10/05 15:19:23;;;;;;;3.70;2.10;;;;;;;;;;5007113;28;20290;-85
2022/10/05 15:22:04;;;;;;;2.17;1.47;;;;;;;;;;5013356;28;20207;-84
2022/10/05 15:24:37;;;;;;;5.07;2.17;;;;;;;;;;5018294;28;20299;-83
2022/10/05 15:27:14;;;;;;;4.07;2.27;;;;;;;;;;5030619;28;20329;-83
2022/10/05 15:29:55;;;;;;;3.33;1.73;;;;;;;;;;5028737;28;20202;-85
2022/10/05 15:32:36;;;;;;;5.27;1.83;;;;;;;;;;5019458;28;20198;-83
2022/10/05 15:35:20;;;;;;;5.27;2.20;;;;;;;;;;5040257;28;20231;-83
2022/10/05 15:37:53;;;;;;;6.53;2.37;;;;;;;;;;5013066;28;20217;-84
2022/10/05 15:40:23;;;;;;;5.07;1.97;;;;;;;;;;5025399;28;20235;-84